Terminal Aerodrome Forecast
Issued by NWS Jacksonville, FL

Home | Current Version | Previous Version | Text Only | Print | Product List | Glossary On
Versions: 1 2 3 4 5 6 7 8 9 10 11 12 13 14
150
FTUS42 KJAX 221120
TAFSSI
TAF
KSSI 221120Z 2212/2312 08008KT P6SM VCSH SCT020 BKN035 BKN070
     FM222300 12012G20KT P6SM -SHRA SCT020 BKN035 OVC070
     FM230700 16010KT P6SM SCT020 BKN100=

USA.gov is the U.S. government's official web portal to all federal, state and local government web resources and services.